Minto, Canada
Current Conditions -  °F | °C
As of 1:07 AM on Saturday 29 Nov 2014 (Local Time) from CYBR Reporting Station
Light Snow Light Snow  
Wind Chill: -23°   Ceiling: 1300
Heat Index: -14°   Visibility: 1mi
Dew Point: -16°   Wind: 13mph
Humidity: 85%   Direction: 60°ENE
Pressure: 29.5"   Gusts: NA
Location:  49.4°N, 100.02°W
Report Text: CYBR 290707Z 06011KT 1SM -SN DRSN OVC013 M14/M16 A2950 RMK SN5SC3 PRESFR SLP025
Loading
Personal Weather Stations






























Interactive Weather Map New forecast layout! Learn more

10-Day Weather Forecast

Advertisements
Track Severe Weather on mobile